Time;durP1;ratioP1;P1;durP2;ratioP2;P2;SDS_P1;SDS_P2;PMS_P1;PMS_P2;Temp;Humidity;BMP_temperature;BMP_pressure;BME280_temperature;BME280_humidity;BME280_pressure;Samples;Min_cycle;Max_cycle;Signal;HPM_P1;HPM_P2
2022/03/13 00:00:53;;;;;;;27.77;15.52;;;0.10;97.60;;;;;;5078758;28;20458;-48
2022/03/13 00:03:22;;;;;;;28.88;16.80;;;0.10;97.60;;;;;;5079167;28;20241;-48
2022/03/13 00:05:51;;;;;;;29.13;14.95;;;0.00;97.80;;;;;;5077238;28;20207;-48
2022/03/13 00:08:31;;;;;;;27.65;16.75;;;0.00;98.00;;;;;;5079287;28;20581;-48
2022/03/13 00:11:07;;;;;;;34.40;16.08;;;0.00;97.80;;;;;;5079836;28;20453;-47
2022/03/13 00:13:47;;;;;;;28.35;15.38;;;0.00;97.60;;;;;;5079739;28;20206;-47
2022/03/13 00:16:15;;;;;;;28.13;16.00;;;0.00;97.50;;;;;;5072181;28;20195;-47
2022/03/13 00:18:46;;;;;;;30.92;14.88;;;0.10;97.40;;;;;;5080111;28;20567;-48
2022/03/13 00:21:15;;;;;;;23.88;14.73;;;0.10;97.30;;;;;;5074973;28;20226;-47
2022/03/13 00:23:44;;;;;;;25.52;14.80;;;0.00;97.50;;;;;;5079838;28;20199;-49
2022/03/13 00:26:13;;;;;;;31.27;16.52;;;-0.10;97.50;;;;;;5071210;28;20198;-50
2022/03/13 00:28:41;;;;;;;24.38;15.10;;;0.00;97.30;;;;;;5076580;28;20234;-49
2022/03/13 00:31:08;;;;;;;23.67;14.23;;;-0.10;97.30;;;;;;5079412;28;20516;-51
2022/03/13 00:33:35;;;;;;;26.40;14.07;;;0.10;97.10;;;;;;5080529;28;20203;-47
2022/03/13 00:36:03;;;;;;;25.02;14.18;;;0.10;96.90;;;;;;5081109;28;20221;-48
2022/03/13 00:38:31;;;;;;;23.83;14.48;;;0.00;97.30;;;;;;5080035;28;20251;-47
2022/03/13 00:40:58;;;;;;;28.40;14.20;;;-0.20;97.40;;;;;;5076519;28;20222;-50
2022/03/13 00:43:28;;;;;;;23.02;15.23;;;-0.10;97.50;;;;;;5078526;28;20198;-48
2022/03/13 00:45:56;;;;;;;24.15;16.05;;;0.00;97.30;;;;;;5077826;28;20199;-52
2022/03/13 00:48:26;;;;;;;25.35;15.73;;;0.10;97.10;;;;;;5083159;28;20219;-48
2022/03/13 00:50:54;;;;;;;28.95;16.23;;;0.00;97.20;;;;;;5083302;28;20246;-50
2022/03/13 00:53:22;;;;;;;24.67;16.65;;;0.00;97.60;;;;;;5082670;28;20209;-48
2022/03/13 00:55:49;;;;;;;33.35;16.17;;;0.00;97.40;;;;;;5081017;28;20195;-45
2022/03/13 00:58:17;;;;;;;28.60;17.50;;;-0.10;97.50;;;;;;5091291;28;20203;-49
2022/03/13 01:00:44;;;;;;;28.75;17.27;;;-0.10;97.40;;;;;;5089809;28;20222;-47
2022/03/13 01:03:34;;;;;;;29.90;18.88;;;-0.20;97.50;;;;;;5083351;28;20195;-50
2022/03/13 01:06:06;;;;;;;27.58;18.05;;;-0.10;97.70;;;;;;5082066;28;20505;-49
2022/03/13 01:08:34;;;;;;;31.23;18.10;;;-0.20;97.70;;;;;;5083002;28;20272;-49
2022/03/13 01:11:03;;;;;;;32.08;18.52;;;-0.20;97.80;;;;;;5082779;28;20448;-50
2022/03/13 01:13:30;;;;;;;33.58;18.58;;;-0.20;98.00;;;;;;5082718;28;20548;-47
2022/03/13 01:16:14;;;;;;;30.02;19.08;;;-0.20;97.90;;;;;;5082365;28;20421;-48
2022/03/13 01:19:00;;;;;;;38.33;17.90;;;-0.40;98.20;;;;;;5083375;28;20218;-49
2022/03/13 01:21:29;;;;;;;28.88;16.50;;;-0.40;98.60;;;;;;5079163;28;20203;-48
2022/03/13 01:24:00;;;;;;;25.70;17.17;;;-0.30;98.60;;;;;;5082879;28;20199;-51
2022/03/13 01:26:28;;;;;;;28.20;16.55;;;-0.50;98.90;;;;;;5079162;28;20233;-47
2022/03/13 01:28:57;;;;;;;31.77;18.63;;;-0.50;99.00;;;;;;5082908;28;20272;-49
2022/03/13 01:31:30;;;;;;;28.15;17.00;;;-0.40;98.90;;;;;;5079109;28;20393;-49
2022/03/13 01:33:58;;;;;;;31.67;15.80;;;-0.30;98.90;;;;;;5082674;28;20455;-50
2022/03/13 01:36:26;;;;;;;36.35;18.20;;;-0.40;99.00;;;;;;5082443;28;20194;-51
2022/03/13 01:38:56;;;;;;;28.83;17.17;;;-0.50;99.30;;;;;;5082159;28;20203;-49
2022/03/13 01:41:24;;;;;;;22.73;16.25;;;-0.50;99.50;;;;;;5082263;28;20202;-46
2022/03/13 01:43:53;;;;;;;34.10;16.50;;;-0.50;99.50;;;;;;5082139;28;20203;-50
2022/03/13 01:46:20;;;;;;;26.17;16.17;;;-0.50;99.40;;;;;;5079310;28;20256;-48
2022/03/13 01:49:18;;;;;;;28.38;16.23;;;-0.60;99.70;;;;;;5082007;28;20245;-51
2022/03/13 01:51:45;;;;;;;33.45;16.38;;;-0.70;99.90;;;;;;5079788;28;20198;-44
2022/03/13 01:54:14;;;;;;;33.40;16.83;;;-0.70;99.90;;;;;;5081624;28;20502;-49
2022/03/13 01:56:42;;;;;;;27.92;16.23;;;-0.80;99.90;;;;;;5082302;28;20213;-49
2022/03/13 01:59:11;;;;;;;23.67;15.45;;;-0.70;99.90;;;;;;5081513;28;20203;-49
2022/03/13 02:01:39;;;;;;;25.63;14.70;;;-0.70;99.90;;;;;;5091535;28;20248;-51
2022/03/13 02:04:12;;;;;;;27.60;14.90;;;-0.70;99.90;;;;;;5080190;28;20207;-50
2022/03/13 02:06:39;;;;;;;23.80;14.65;;;-0.80;99.90;;;;;;5087286;28;20207;-50
2022/03/13 02:09:07;;;;;;;24.13;13.48;;;-0.80;99.90;;;;;;5091668;28;20231;-50
2022/03/13 02:11:40;;;;;;;25.15;15.60;;;-0.80;99.90;;;;;;5087476;28;20195;-50
2022/03/13 02:14:10;;;;;;;25.52;14.25;;;-0.90;99.90;;;;;;5092898;28;20211;-49
2022/03/13 02:16:37;;;;;;;25.00;14.93;;;-0.80;99.90;;;;;;5081980;28;20225;-46
2022/03/13 02:19:06;;;;;;;22.50;15.25;;;-0.90;99.90;;;;;;5081115;28;20218;-49
2022/03/13 02:21:42;;;;;;;25.02;15.73;;;-0.90;99.90;;;;;;5081517;28;20210;-48
2022/03/13 02:24:13;;;;;;;26.50;14.95;;;-0.90;99.90;;;;;;5075926;28;20202;-48
2022/03/13 02:26:59;;;;;;;20.55;14.32;;;-1.00;99.90;;;;;;5073197;28;20392;-49
2022/03/13 02:29:27;;;;;;;22.75;15.23;;;-0.90;99.90;;;;;;5081468;28;20226;-45
2022/03/13 02:31:57;;;;;;;25.05;14.30;;;-0.90;99.90;;;;;;5082360;28;20497;-49
2022/03/13 02:34:25;;;;;;;29.33;12.93;;;-0.80;99.90;;;;;;5083482;28;20529;-48
2022/03/13 02:37:01;;;;;;;21.63;12.85;;;-0.80;99.90;;;;;;5085862;28;20199;-45
2022/03/13 02:39:33;;;;;;;28.83;15.95;;;-1.00;99.90;;;;;;5084285;28;20229;-46
2022/03/13 02:42:00;;;;;;;22.77;12.98;;;-0.90;99.90;;;;;;5086285;28;20199;-53
2022/03/13 02:44:28;;;;;;;19.50;12.32;;;-0.90;99.90;;;;;;5080290;28;20203;-49
2022/03/13 02:46:59;;;;;;;19.23;14.57;;;-0.80;99.90;;;;;;5081456;28;20210;-50
2022/03/13 02:49:27;;;;;;;26.48;12.80;;;-0.70;99.90;;;;;;5080923;28;20222;-46
2022/03/13 02:51:59;;;;;;;21.65;13.05;;;-0.90;99.90;;;;;;5077767;28;20597;-46
2022/03/13 02:54:27;;;;;;;22.45;13.52;;;-0.80;99.90;;;;;;5081102;28;20194;-46
2022/03/13 02:56:55;;;;;;;23.05;13.40;;;-0.90;99.90;;;;;;5080746;28;20207;-47
2022/03/13 02:59:22;;;;;;;25.23;14.68;;;-0.80;99.90;;;;;;5080733;28;20234;-45
2022/03/13 03:01:50;;;;;;;25.10;13.55;;;-0.80;99.90;;;;;;5080785;28;20198;-47
2022/03/13 03:04:22;;;;;;;19.98;12.05;;;-0.90;99.90;;;;;;5078067;28;20230;-45
2022/03/13 03:07:02;;;;;;;18.58;12.05;;;-1.00;99.90;;;;;;5081455;28;20210;-46
2022/03/13 03:09:32;;;;;;;24.55;14.20;;;-0.90;99.90;;;;;;5084282;28;20226;-45
2022/03/13 03:12:01;;;;;;;23.08;12.00;;;-0.80;99.90;;;;;;5084077;28;20199;-45
2022/03/13 03:14:30;;;;;;;22.60;13.00;;;-1.00;99.90;;;;;;5085820;28;20213;-45
2022/03/13 03:16:58;;;;;;;23.90;13.60;;;-1.00;99.90;;;;;;5082386;28;20240;-44
2022/03/13 03:19:26;;;;;;;20.02;12.52;;;-1.10;99.90;;;;;;5080430;28;20230;-44
2022/03/13 03:21:54;;;;;;;22.13;13.55;;;-1.10;99.90;;;;;;5085079;28;20230;-45
2022/03/13 03:24:24;;;;;;;23.20;12.25;;;-1.00;99.90;;;;;;5080680;28;20210;-46
2022/03/13 03:26:55;;;;;;;21.83;12.80;;;-1.00;99.90;;;;;;5082765;28;20202;-46
2022/03/13 03:29:27;;;;;;;25.00;15.73;;;-1.20;99.90;;;;;;5084560;28;20234;-46
2022/03/13 03:31:55;;;;;;;22.23;12.15;;;-1.10;99.90;;;;;;5084906;28;20202;-45
2022/03/13 03:34:25;;;;;;;21.45;13.32;;;-1.30;99.90;;;;;;5083567;28;20213;-46
2022/03/13 03:36:56;;;;;;;26.20;13.90;;;-1.30;99.90;;;;;;5081616;28;20510;-47
2022/03/13 03:39:24;;;;;;;29.52;14.65;;;-1.20;99.90;;;;;;5080978;28;20223;-45
2022/03/13 03:41:53;;;;;;;22.67;13.52;;;-1.10;99.90;;;;;;5084674;28;20237;-46
2022/03/13 03:44:21;;;;;;;22.55;13.43;;;-1.10;99.90;;;;;;5082096;28;20203;-44
2022/03/13 03:46:50;;;;;;;22.25;12.07;;;-1.00;99.90;;;;;;5083772;28;20210;-46
2022/03/13 03:49:18;;;;;;;24.13;13.85;;;-1.10;99.90;;;;;;5088560;28;20312;-47
2022/03/13 03:51:46;;;;;;;28.27;13.73;;;-1.10;99.90;;;;;;5075918;28;20195;-42
2022/03/13 03:54:14;;;;;;;25.70;12.93;;;-1.10;99.90;;;;;;5081712;28;20202;-44
2022/03/13 03:56:42;;;;;;;24.48;12.82;;;-1.10;99.90;;;;;;5081654;28;20199;-45
2022/03/13 03:59:10;;;;;;;20.45;11.30;;;-1.10;99.90;;;;;;5081745;28;20205;-45
2022/03/13 04:01:39;;;;;;;22.05;12.45;;;-1.20;99.90;;;;;;5079043;28;20209;-49
2022/03/13 04:04:13;;;;;;;22.25;10.93;;;-1.10;99.90;;;;;;5073883;28;20213;-49
2022/03/13 04:06:40;;;;;;;14.38;11.85;;;-1.10;99.90;;;;;;5080098;28;20215;-46
2022/03/13 04:09:10;;;;;;;17.70;11.27;;;-1.10;99.90;;;;;;5080151;28;20218;-49
2022/03/13 04:11:38;;;;;;;18.42;10.88;;;-1.10;99.90;;;;;;5081816;28;20207;-49
2022/03/13 04:14:06;;;;;;;21.95;11.05;;;-1.10;99.90;;;;;;5080371;28;20195;-47
2022/03/13 04:16:34;;;;;;;20.58;11.55;;;-1.10;99.90;;;;;;5082597;28;20244;-43
2022/03/13 04:19:01;;;;;;;18.60;12.32;;;-1.10;99.90;;;;;;5081236;28;20225;-45
2022/03/13 04:21:29;;;;;;;24.80;12.95;;;-1.00;99.90;;;;;;5084598;28;20206;-45
2022/03/13 04:23:56;;;;;;;18.50;11.55;;;-1.00;99.90;;;;;;5085668;28;20324;-48
2022/03/13 04:26:24;;;;;;;17.52;11.93;;;-1.20;99.90;;;;;;5085277;28;20222;-49
2022/03/13 04:28:52;;;;;;;16.23;10.93;;;-1.10;99.90;;;;;;5085649;28;20494;-45
2022/03/13 04:31:20;;;;;;;18.73;11.05;;;-1.00;99.90;;;;;;5082841;28;20222;-45
2022/03/13 04:33:48;;;;;;;15.77;11.82;;;-1.00;99.90;;;;;;5079990;28;20217;-45
2022/03/13 04:36:24;;;;;;;19.38;12.20;;;-1.00;99.90;;;;;;5085188;28;20202;-49
2022/03/13 04:38:52;;;;;;;17.85;11.93;;;-1.00;99.90;;;;;;5082402;28;20378;-44
2022/03/13 04:41:19;;;;;;;18.45;11.85;;;-1.10;99.90;;;;;;5084880;28;20245;-46
2022/03/13 04:43:47;;;;;;;23.20;11.68;;;-1.10;99.90;;;;;;5077395;28;20237;-44
2022/03/13 04:46:15;;;;;;;17.27;11.18;;;-1.10;99.90;;;;;;5083240;28;20211;-47
2022/03/13 04:48:42;;;;;;;24.70;13.57;;;-1.20;99.90;;;;;;5083220;28;20394;-45
2022/03/13 04:51:10;;;;;;;18.52;10.98;;;-1.20;99.90;;;;;;5079167;28;20276;-42
2022/03/13 04:53:38;;;;;;;23.63;11.82;;;-1.10;99.90;;;;;;5083988;28;20525;-45
2022/03/13 04:56:05;;;;;;;15.95;12.15;;;-1.20;99.90;;;;;;5083774;28;20195;-44
2022/03/13 04:58:33;;;;;;;20.90;11.60;;;-1.20;99.90;;;;;;5084052;28;20219;-41
2022/03/13 05:01:00;;;;;;;15.70;12.02;;;-1.20;99.90;;;;;;5083209;28;20234;-45
2022/03/13 05:03:32;;;;;;;24.13;11.38;;;-1.20;99.90;;;;;;5083333;28;20278;-45
2022/03/13 05:06:00;;;;;;;21.98;11.88;;;-1.20;99.90;;;;;;5083247;28;20498;-44
2022/03/13 05:08:28;;;;;;;21.83;12.68;;;-1.20;99.90;;;;;;5083447;28;20233;-44
2022/03/13 05:10:55;;;;;;;21.58;13.40;;;-1.30;99.90;;;;;;5083782;28;20290;-45
2022/03/13 05:13:24;;;;;;;18.75;13.43;;;-1.30;99.90;;;;;;5083066;28;20202;-43
2022/03/13 05:15:52;;;;;;;17.98;11.00;;;-1.20;99.90;;;;;;5081850;28;20425;-44
2022/03/13 05:18:20;;;;;;;24.42;13.10;;;-1.30;99.90;;;;;;5083490;28;20199;-42
2022/03/13 05:20:48;;;;;;;16.65;11.05;;;-1.30;99.90;;;;;;5086347;28;20930;-43
2022/03/13 05:23:15;;;;;;;15.20;11.10;;;-1.30;99.90;;;;;;5084073;28;20217;-43
2022/03/13 05:25:42;;;;;;;14.65;10.88;;;-1.30;99.90;;;;;;5086061;28;20429;-45
2022/03/13 05:28:13;;;;;;;17.85;10.98;;;-1.20;99.90;;;;;;5075261;28;20195;-44
2022/03/13 05:30:42;;;;;;;24.08;12.70;;;-1.30;99.90;;;;;;5085971;28;20234;-46
2022/03/13 05:33:09;;;;;;;21.70;11.50;;;-1.20;99.90;;;;;;5085948;28;20195;-45
2022/03/13 05:35:37;;;;;;;16.65;11.55;;;-1.10;99.90;;;;;;5086459;28;20199;-46
2022/03/13 05:38:04;;;;;;;23.17;12.95;;;-1.10;99.90;;;;;;5085590;28;20244;-48
2022/03/13 05:40:35;;;;;;;14.15;11.40;;;-1.00;99.90;;;;;;5085646;28;20227;-44
2022/03/13 05:43:04;;;;;;;22.95;12.77;;;-0.90;99.90;;;;;;5086065;28;20203;-46
2022/03/13 05:45:32;;;;;;;18.33;9.02;;;-1.00;99.90;;;;;;5086719;28;20203;-44
2022/03/13 05:48:08;;;;;;;20.17;12.00;;;-1.00;99.90;;;;;;5084426;28;20199;-44
2022/03/13 05:50:36;;;;;;;23.88;13.30;;;-0.90;99.90;;;;;;5082542;28;20255;-45
2022/03/13 05:53:04;;;;;;;18.67;11.55;;;-0.90;99.90;;;;;;5082471;28;20203;-42
2022/03/13 05:55:31;;;;;;;16.67;10.35;;;-0.90;99.90;;;;;;5082506;28;20261;-45
2022/03/13 05:58:00;;;;;;;19.23;10.45;;;-0.90;99.90;;;;;;5082554;28;20199;-43
2022/03/13 06:00:29;;;;;;;22.75;12.15;;;-0.90;99.90;;;;;;5082535;28;20223;-44
2022/03/13 06:02:57;;;;;;;16.45;9.73;;;-0.80;99.90;;;;;;5082554;28;20234;-45
2022/03/13 06:05:26;;;;;;;15.38;10.20;;;-0.70;99.90;;;;;;5082014;28;20210;-43
2022/03/13 06:07:55;;;;;;;21.25;11.30;;;-0.60;99.90;;;;;;5083466;28;20208;-43
2022/03/13 06:10:22;;;;;;;20.40;11.05;;;-0.70;99.90;;;;;;5084133;28;20245;-42
2022/03/13 06:12:50;;;;;;;24.50;10.63;;;-0.70;99.90;;;;;;5082260;28;20237;-43
2022/03/13 06:15:17;;;;;;;15.52;10.40;;;-0.60;99.90;;;;;;5083995;28;20199;-47
2022/03/13 06:17:48;;;;;;;24.65;11.45;;;-0.50;99.90;;;;;;5081920;28;20194;-42
2022/03/13 06:20:17;;;;;;;18.65;13.00;;;-0.50;99.90;;;;;;5078621;28;20242;-44
2022/03/13 06:22:46;;;;;;;20.73;10.82;;;-0.40;99.90;;;;;;5085164;28;20585;-43
2022/03/13 06:25:14;;;;;;;19.05;9.40;;;0.10;99.90;;;;;;5084201;28;20206;-44
2022/03/13 06:27:43;;;;;;;15.85;10.20;;;1.50;99.90;;;;;;5086171;28;20203;-44
2022/03/13 06:30:20;;;;;;;18.33;9.40;;;2.40;99.80;;;;;;5076100;28;20223;-46
2022/03/13 06:32:52;;;;;;;13.98;10.35;;;3.40;97.10;;;;;;5081368;28;20201;-44
2022/03/13 06:35:22;;;;;;;11.77;8.05;;;3.80;94.90;;;;;;5081607;28;20239;-45
2022/03/13 06:37:50;;;;;;;16.33;9.93;;;4.20;93.50;;;;;;5080707;28;20494;-44
2022/03/13 06:40:19;;;;;;;15.38;9.55;;;4.20;92.70;;;;;;5088748;28;20226;-46
2022/03/13 06:42:48;;;;;;;21.48;10.27;;;4.40;91.90;;;;;;5082668;28;20206;-45
2022/03/13 06:45:15;;;;;;;16.17;9.18;;;4.40;91.40;;;;;;5081101;28;20240;-45
2022/03/13 06:47:49;;;;;;;14.57;9.63;;;3.60;92.10;;;;;;5083738;28;20508;-43
2022/03/13 06:50:18;;;;;;;15.73;9.30;;;3.40;92.70;;;;;;5071961;28;20275;-43
2022/03/13 06:52:47;;;;;;;12.98;9.25;;;3.20;92.90;;;;;;5081540;28;20209;-42
2022/03/13 06:55:15;;;;;;;16.83;10.30;;;3.10;93.40;;;;;;5081297;28;20204;-42
2022/03/13 06:57:43;;;;;;;19.33;9.23;;;3.10;93.70;;;;;;5082172;28;20220;-43
2022/03/13 07:00:12;;;;;;;12.02;8.50;;;3.20;93.60;;;;;;5073541;28;20229;-47
2022/03/13 07:02:46;;;;;;;20.15;10.90;;;3.40;93.10;;;;;;5080983;28;20233;-44
2022/03/13 07:05:14;;;;;;;16.02;9.85;;;4.00;92.70;;;;;;5081286;28;20213;-47
2022/03/13 07:07:42;;;;;;;13.23;9.45;;;4.70;91.50;;;;;;5080433;28;20207;-44
2022/03/13 07:10:12;;;;;;;18.08;9.82;;;4.90;90.40;;;;;;5081025;28;20279;-46
2022/03/13 07:12:42;;;;;;;17.67;9.65;;;5.70;89.10;;;;;;5082789;28;20198;-44
2022/03/13 07:15:12;;;;;;;15.60;9.65;;;6.00;85.00;;;;;;5082125;28;20198;-44
2022/03/13 07:17:44;;;;;;;19.52;8.90;;;6.30;83.70;;;;;;5082309;28;20203;-43
2022/03/13 07:20:13;;;;;;;14.82;10.90;;;6.50;81.00;;;;;;5073184;28;20560;-45
2022/03/13 07:22:42;;;;;;;14.70;8.73;;;6.90;80.20;;;;;;5077008;28;20203;-46
2022/03/13 07:25:11;;;;;;;16.35;8.90;;;8.70;74.60;;;;;;5075999;28;20211;-44
2022/03/13 07:27:40;;;;;;;13.45;9.82;;;9.70;69.50;;;;;;5077218;28;20239;-48
2022/03/13 07:30:12;;;;;;;19.27;10.75;;;10.00;64.60;;;;;;5080059;28;20244;-46
2022/03/13 07:32:40;;;;;;;14.73;9.10;;;10.00;64.40;;;;;;5080780;28;20237;-50
2022/03/13 07:35:08;;;;;;;14.00;9.63;;;9.70;63.90;;;;;;5080088;28;20209;-49
2022/03/13 07:37:36;;;;;;;12.38;9.05;;;9.50;64.00;;;;;;5080031;28;20379;-48
2022/03/13 07:40:05;;;;;;;14.88;9.52;;;10.50;62.30;;;;;;5080815;28;20222;-44
2022/03/13 07:42:32;;;;;;;14.70;9.65;;;9.80;62.00;;;;;;5080634;28;20569;-45
2022/03/13 07:45:00;;;;;;;9.93;8.30;;;10.10;61.60;;;;;;5080234;28;20213;-48
2022/03/13 07:47:30;;;;;;;13.02;8.43;;;10.80;60.00;;;;;;5076759;28;20489;-47
2022/03/13 07:49:57;;;;;;;13.20;10.13;;;10.90;59.80;;;;;;5080335;28;20227;-49
2022/03/13 07:52:25;;;;;;;14.07;9.55;;;12.00;58.20;;;;;;5081405;28;20543;-49
2022/03/13 07:54:58;;;;;;;12.13;9.48;;;13.10;56.10;;;;;;5081299;28;20262;-45
2022/03/13 07:57:25;;;;;;;11.73;9.23;;;13.10;54.20;;;;;;5080943;28;20205;-47
2022/03/13 07:59:52;;;;;;;10.82;8.80;;;12.70;53.70;;;;;;5080699;28;20285;-47
2022/03/13 08:02:20;;;;;;;13.10;10.73;;;13.20;54.00;;;;;;5070642;28;20215;-50
2022/03/13 08:04:47;;;;;;;16.77;10.27;;;14.20;52.40;;;;;;5080710;28;20347;-48
2022/03/13 08:07:16;;;;;;;15.05;10.05;;;14.00;51.40;;;;;;5072675;28;20205;-49
2022/03/13 08:09:43;;;;;;;14.77;10.13;;;14.10;50.90;;;;;;5081186;28;20213;-48
2022/03/13 08:12:11;;;;;;;13.02;10.30;;;13.30;51.50;;;;;;5074828;28;20391;-48
2022/03/13 08:14:38;;;;;;;11.63;8.95;;;13.40;51.70;;;;;;5081321;28;20204;-50
2022/03/13 08:17:05;;;;;;;14.32;10.10;;;13.00;51.30;;;;;;5079914;28;20195;-47
2022/03/13 08:19:33;;;;;;;12.73;10.02;;;12.20;52.00;;;;;;5082106;28;20556;-47
2022/03/13 08:22:00;;;;;;;17.60;11.07;;;12.50;52.10;;;;;;5080246;28;20274;-49
2022/03/13 08:24:28;;;;;;;14.80;10.20;;;13.30;51.20;;;;;;5079827;28;20203;-51
2022/03/13 08:26:56;;;;;;;14.77;11.90;;;14.10;50.40;;;;;;5077916;28;20425;-50
2022/03/13 08:29:28;;;;;;;20.87;10.93;;;15.30;48.70;;;;;;5081171;28;20364;-48
2022/03/13 08:31:55;;;;;;;15.38;11.20;;;14.50;48.70;;;;;;5080261;28;20432;-50
2022/03/13 08:34:22;;;;;;;18.63;11.98;;;14.10;49.50;;;;;;5077399;28;20199;-49
2022/03/13 08:36:51;;;;;;;17.42;12.23;;;14.20;49.50;;;;;;5079577;28;20199;-48
2022/03/13 08:39:18;;;;;;;17.13;12.63;;;14.20;49.30;;;;;;5079430;28;20253;-46
2022/03/13 08:41:46;;;;;;;16.05;12.02;;;14.90;49.30;;;;;;5076817;28;20622;-44
2022/03/13 08:44:14;;;;;;;20.77;12.00;;;15.40;48.70;;;;;;5079274;28;20203;-51
2022/03/13 08:46:41;;;;;;;18.47;12.70;;;15.50;47.90;;;;;;5079775;28;20635;-49
2022/03/13 08:49:09;;;;;;;19.43;12.43;;;15.60;47.70;;;;;;5076042;28;20667;-48
2022/03/13 08:51:36;;;;;;;18.37;12.07;;;15.70;46.70;;;;;;5078016;28;20451;-50
2022/03/13 08:54:03;;;;;;;19.20;12.00;;;15.10;48.20;;;;;;5076578;28;20608;-49
2022/03/13 08:56:31;;;;;;;13.57;10.37;;;15.70;47.40;;;;;;5079542;28;20453;-50
2022/03/13 08:58:58;;;;;;;15.33;9.53;;;15.30;46.80;;;;;;5082728;28;20436;-53
2022/03/13 09:01:26;;;;;;;12.47;10.13;;;15.00;46.70;;;;;;5078388;28;20422;-49
2022/03/13 09:03:54;;;;;;;12.25;9.70;;;14.20;47.40;;;;;;5081679;28;20986;-46
2022/03/13 09:06:23;;;;;;;18.08;9.77;;;13.80;47.80;;;;;;5071157;28;20459;-49
2022/03/13 09:08:51;;;;;;;11.30;9.40;;;13.90;47.20;;;;;;5081420;28;20506;-52
2022/03/13 09:11:19;;;;;;;15.35;7.75;;;13.90;47.90;;;;;;5076808;28;20242;-53
2022/03/13 09:13:46;;;;;;;11.18;8.30;;;13.60;48.10;;;;;;5068430;28;20195;-47
2022/03/13 09:16:14;;;;;;;16.13;8.30;;;13.60;47.70;;;;;;5065133;28;20250;-48
2022/03/13 09:18:41;;;;;;;13.80;9.13;;;14.10;47.40;;;;;;5065612;28;20226;-48
2022/03/13 09:21:08;;;;;;;10.00;7.30;;;14.10;46.80;;;;;;5069230;28;20222;-49
2022/03/13 09:23:36;;;;;;;11.27;8.18;;;14.00;46.10;;;;;;5072462;28;20203;-51
2022/03/13 09:26:04;;;;;;;11.45;8.23;;;13.70;46.50;;;;;;5073769;28;20199;-49
2022/03/13 09:28:32;;;;;;;16.23;8.90;;;12.80;46.60;;;;;;5071739;28;20414;-50
2022/03/13 09:30:59;;;;;;;10.45;7.35;;;12.60;45.90;;;;;;5078812;28;20525;-45
2022/03/13 09:33:27;;;;;;;7.80;6.30;;;12.10;46.80;;;;;;5072468;28;20206;-50
2022/03/13 09:35:54;;;;;;;7.25;6.60;;;12.10;46.60;;;;;;5074371;28;20195;-46
2022/03/13 09:38:22;;;;;;;9.23;7.35;;;11.50;47.30;;;;;;5071514;28;20208;-51
2022/03/13 09:40:49;;;;;;;11.77;8.25;;;11.00;48.10;;;;;;5073296;28;20226;-48
2022/03/13 09:43:19;;;;;;;9.10;6.90;;;10.50;48.20;;;;;;5072585;28;20212;-51
2022/03/13 09:45:48;;;;;;;7.88;5.45;;;10.20;48.20;;;;;;5066961;28;20209;-48
2022/03/13 09:48:18;;;;;;;7.97;6.10;;;10.30;47.40;;;;;;5067856;28;20197;-45
2022/03/13 09:50:46;;;;;;;9.40;6.28;;;10.30;48.00;;;;;;5077314;28;20275;-49
2022/03/13 09:53:13;;;;;;;10.32;5.93;;;10.30;48.50;;;;;;5082014;28;20197;-44
2022/03/13 09:55:40;;;;;;;10.15;6.28;;;10.00;47.60;;;;;;5074473;28;20463;-48
2022/03/13 09:58:10;;;;;;;6.82;4.85;;;9.70;48.30;;;;;;5070024;28;20211;-48
2022/03/13 10:00:37;;;;;;;7.28;6.00;;;9.50;48.40;;;;;;5066183;28;20569;-45
2022/03/13 10:03:08;;;;;;;12.00;7.20;;;9.50;49.50;;;;;;5067068;28;20468;-48
2022/03/13 10:05:47;;;;;;;6.53;5.10;;;9.50;49.80;;;;;;5072293;28;20263;-49
2022/03/13 10:08:16;;;;;;;13.20;7.38;;;9.60;50.50;;;;;;5067037;28;20212;-48
2022/03/13 10:10:46;;;;;;;11.13;6.07;;;9.50;50.20;;;;;;5069687;28;20229;-49
2022/03/13 10:13:31;;;;;;;7.38;5.35;;;9.60;50.50;;;;;;5070855;28;20218;-48
2022/03/13 10:15:59;;;;;;;8.38;5.78;;;9.60;50.40;;;;;;5067249;28;20543;-48
2022/03/13 10:18:27;;;;;;;8.88;6.07;;;9.80;49.90;;;;;;5065558;28;20309;-49
2022/03/13 10:20:56;;;;;;;10.50;6.15;;;9.80;49.90;;;;;;5066484;28;20226;-49
2022/03/13 10:23:23;;;;;;;9.32;6.22;;;9.80;49.60;;;;;;5070855;28;20214;-49
2022/03/13 10:25:52;;;;;;;7.18;5.30;;;9.70;49.40;;;;;;5072800;28;20204;-49
2022/03/13 10:28:36;;;;;;;6.18;5.57;;;9.70;49.90;;;;;;5064921;28;20233;-51
2022/03/13 10:31:11;;;;;;;7.03;5.68;;;9.70;49.60;;;;;;5065268;28;20225;-49
2022/03/13 10:33:56;;;;;;;8.45;5.03;;;9.70;49.80;;;;;;5066061;28;20204;-51
2022/03/13 10:36:31;;;;;;;10.48;6.20;;;9.70;49.80;;;;;;5065359;28;20259;-49
2022/03/13 10:39:02;;;;;;;13.35;6.80;;;9.70;49.50;;;;;;5064202;28;20205;-50
2022/03/13 10:41:44;;;;;;;8.18;5.63;;;9.70;49.20;;;;;;5064553;28;20548;-49
2022/03/13 10:44:21;;;;;;;12.57;7.00;;;10.00;49.30;;;;;;5061419;28;20238;-47
2022/03/13 10:46:57;;;;;;;6.05;5.45;;;10.10;49.60;;;;;;5067851;28;20201;-47
2022/03/13 10:49:44;;;;;;;9.35;6.05;;;9.90;49.10;;;;;;5074835;28;20396;-49
2022/03/13 10:52:31;;;;;;;11.48;5.85;;;10.00;49.70;;;;;;5063712;28;20206;-47
2022/03/13 10:55:16;;;;;;;27.58;16.20;;;10.10;49.20;;;;;;5069348;28;20200;-45
2022/03/13 10:57:55;;;;;;;27.17;12.52;;;10.10;49.70;;;;;;5077342;28;20227;-48
2022/03/13 11:00:23;;;;;;;11.30;6.55;;;10.00;49.30;;;;;;5071765;28;20235;-47
2022/03/13 11:02:51;;;;;;;6.78;6.10;;;10.10;49.00;;;;;;5082997;28;20304;-49
2022/03/13 11:05:19;;;;;;;7.93;6.18;;;10.10;48.90;;;;;;5083648;28;20218;-49
2022/03/13 11:07:52;;;;;;;11.68;6.85;;;10.10;49.20;;;;;;5080339;28;20222;-47
2022/03/13 11:10:19;;;;;;;9.38;6.95;;;10.10;49.00;;;;;;5080641;28;20239;-49
2022/03/13 11:12:48;;;;;;;9.25;6.43;;;10.10;49.60;;;;;;5077290;28;20198;-49
2022/03/13 11:15:16;;;;;;;6.75;5.28;;;10.40;48.50;;;;;;5080106;28;20198;-51
2022/03/13 11:17:44;;;;;;;8.10;6.20;;;10.40;49.00;;;;;;5080402;28;20212;-47
2022/03/13 11:20:11;;;;;;;9.75;6.10;;;10.50;48.50;;;;;;5079729;28;20217;-51
2022/03/13 11:22:39;;;;;;;7.63;5.45;;;10.50;47.80;;;;;;5076305;28;20244;-49
2022/03/13 11:25:07;;;;;;;7.88;6.00;;;10.30;47.30;;;;;;5079705;28;20202;-51
2022/03/13 11:27:38;;;;;;;10.13;7.00;;;10.30;47.50;;;;;;5071440;28;20197;-44
2022/03/13 11:30:08;;;;;;;12.75;6.40;;;10.30;47.80;;;;;;5071101;28;20230;-45
2022/03/13 11:32:49;;;;;;;12.00;6.70;;;10.30;48.40;;;;;;5067150;28;20206;-46
2022/03/13 11:35:17;;;;;;;9.43;6.45;;;10.40;48.10;;;;;;5075009;28;20201;-47
2022/03/13 11:37:53;;;;;;;11.20;6.53;;;10.50;47.80;;;;;;5079803;28;20201;-47
2022/03/13 11:40:29;;;;;;;10.50;7.45;;;10.50;48.10;;;;;;5080073;28;20610;-46
2022/03/13 11:43:12;;;;;;;6.05;5.25;;;10.60;48.10;;;;;;5079864;28;20542;-45
2022/03/13 11:45:41;;;;;;;9.32;6.90;;;10.60;47.10;;;;;;5072743;28;20206;-50
2022/03/13 11:48:13;;;;;;;8.77;6.20;;;10.70;47.10;;;;;;5073595;28;20280;-48
2022/03/13 11:50:55;;;;;;;11.13;6.75;;;10.80;47.60;;;;;;5079941;28;20238;-46
2022/03/13 11:53:24;;;;;;;6.63;5.93;;;10.80;47.20;;;;;;5073413;28;20223;-48
2022/03/13 11:56:26;;;;;;;13.23;6.65;;;10.80;47.10;;;;;;5070435;28;20198;-47
2022/03/13 11:59:13;;;;;;;12.23;6.97;;;10.80;47.20;;;;;;5075311;28;20209;-46
2022/03/13 12:01:41;;;;;;;8.95;5.95;;;10.80;46.70;;;;;;5080590;28;20216;-47
2022/03/13 12:04:14;;;;;;;10.77;6.88;;;10.80;46.40;;;;;;5072524;28;20271;-50
2022/03/13 12:06:49;;;;;;;11.57;5.70;;;10.80;46.60;;;;;;5079777;28;20239;-49
2022/03/13 12:09:17;;;;;;;8.93;6.10;;;10.90;46.30;;;;;;5079757;28;20302;-47
2022/03/13 12:11:58;;;;;;;5.88;4.70;;;10.90;45.40;;;;;;5079423;28;20398;-53
2022/03/13 12:14:54;;;;;;;8.55;5.30;;;10.80;44.40;;;;;;5079987;28;20201;-48
2022/03/13 12:17:26;;;;;;;6.90;4.88;;;10.70;44.60;;;;;;5076327;28;20194;-47
2022/03/13 12:19:58;;;;;;;9.25;5.60;;;10.70;44.10;;;;;;5081090;28;20214;-48
2022/03/13 12:22:29;;;;;;;11.18;6.70;;;10.80;44.50;;;;;;5080379;28;20215;-47
2022/03/13 12:25:00;;;;;;;9.65;6.20;;;10.90;44.90;;;;;;5091410;28;20205;-47
2022/03/13 12:27:28;;;;;;;6.90;5.18;;;10.80;45.20;;;;;;5104044;28;20209;-49
2022/03/13 12:29:57;;;;;;;9.35;4.35;;;10.90;44.30;;;;;;5104692;28;20229;-52
2022/03/13 12:32:37;;;;;;;7.40;4.80;;;11.00;44.40;;;;;;5105634;28;20221;-51
2022/03/13 12:35:04;;;;;;;8.57;5.80;;;10.90;42.30;;;;;;5101817;28;20200;-48
2022/03/13 12:37:32;;;;;;;9.70;5.22;;;10.80;42.60;;;;;;5100425;28;20201;-46
2022/03/13 12:40:02;;;;;;;6.97;4.88;;;10.90;40.50;;;;;;5101935;28;20217;-50
2022/03/13 12:42:34;;;;;;;5.50;4.90;;;10.90;41.10;;;;;;5102857;28;20205;-51
2022/03/13 12:45:09;;;;;;;7.32;5.60;;;11.00;41.10;;;;;;5103465;28;20201;-51
2022/03/13 12:47:47;;;;;;;6.80;4.47;;;11.00;40.80;;;;;;5104076;28;20206;-47
2022/03/13 12:50:17;;;;;;;5.88;5.28;;;10.90;41.50;;;;;;5103505;28;20263;-45